createdAt,value
2019-05-09T00:02:20.879Z,12.10
2019-05-09T00:04:47.743Z,12.10
2019-05-09T00:07:15.004Z,12.10
2019-05-09T00:09:44.122Z,12.00
2019-05-09T00:12:11.228Z,12.10
2019-05-09T00:14:38.876Z,12.10
2019-05-09T00:17:06.571Z,12.10
2019-05-09T00:19:33.835Z,12.00
2019-05-09T00:22:03.082Z,12.00
2019-05-09T00:24:29.576Z,12.00
2019-05-09T00:26:57.120Z,12.00
2019-05-09T00:29:33.335Z,12.00
2019-05-09T00:32:07.178Z,12.00
2019-05-09T00:34:47.007Z,12.00
2019-05-09T00:37:15.062Z,12.00
2019-05-09T00:39:43.451Z,12.00
2019-05-09T00:42:13.525Z,12.00
2019-05-09T00:44:43.991Z,12.00
2019-05-09T00:47:26.052Z,12.00
2019-05-09T00:49:54.151Z,12.10
2019-05-09T00:52:23.490Z,12.10
2019-05-09T00:54:53.007Z,12.00
2019-05-09T00:57:35.298Z,12.00
2019-05-09T01:00:08.157Z,12.00
2019-05-09T01:02:35.701Z,12.00
2019-05-09T01:05:04.205Z,12.00
2019-05-09T01:07:33.628Z,12.10
2019-05-09T01:10:04.081Z,12.10
2019-05-09T01:12:30.540Z,12.10
2019-05-09T01:14:57.676Z,12.00
2019-05-09T01:17:25.520Z,12.10
2019-05-09T01:19:53.850Z,12.00
2019-05-09T01:22:23.639Z,12.00
2019-05-09T01:24:53.402Z,12.00
2019-05-09T01:27:23.338Z,12.10
2019-05-09T01:29:53.431Z,12.00
2019-05-09T01:32:43.393Z,12.00
2019-05-09T01:35:13.040Z,12.00
2019-05-09T01:37:40.024Z,12.00
2019-05-09T01:40:08.841Z,12.10
2019-05-09T01:42:36.683Z,12.00
2019-05-09T01:45:03.830Z,12.10
2019-05-09T01:47:34.118Z,12.10
2019-05-09T01:50:03.923Z,12.00
2019-05-09T01:52:30.975Z,12.00
2019-05-09T01:54:58.099Z,12.00
2019-05-09T01:57:25.519Z,12.10
2019-05-09T01:59:53.412Z,12.10
2019-05-09T02:02:23.419Z,12.10
2019-05-09T02:04:53.197Z,12.00
2019-05-09T02:07:20.204Z,12.00
2019-05-09T02:09:48.444Z,12.00
2019-05-09T02:12:15.944Z,12.00
2019-05-09T02:14:50.161Z,12.00
2019-05-09T02:17:26.016Z,12.00
2019-05-09T02:19:54.471Z,12.00
2019-05-09T02:22:34.924Z,11.90
2019-05-09T02:25:04.668Z,11.90
2019-05-09T02:27:33.253Z,11.90
2019-05-09T02:30:05.428Z,11.90
2019-05-09T02:32:30.756Z,11.90
2019-05-09T02:34:57.891Z,12.00
2019-05-09T02:37:25.129Z,11.90
2019-05-09T02:39:53.397Z,11.90
2019-05-09T02:42:21.788Z,11.90
2019-05-09T02:44:49.462Z,11.90
2019-05-09T02:47:20.297Z,11.90
2019-05-09T02:49:48.772Z,11.80
2019-05-09T02:52:19.823Z,11.80
2019-05-09T02:54:49.873Z,11.90
2019-05-09T02:57:18.441Z,11.90
2019-05-09T03:00:04.868Z,11.90
2019-05-09T03:03:01.373Z,11.90
2019-05-09T03:05:29.673Z,11.90
2019-05-09T03:07:58.534Z,11.90
2019-05-09T03:10:28.993Z,11.80
2019-05-09T03:12:55.101Z,11.90
2019-05-09T03:15:22.212Z,11.90
2019-05-09T03:17:50.032Z,11.90
2019-05-09T03:20:30.673Z,11.80
2019-05-09T03:22:58.547Z,11.80
2019-05-09T03:25:28.925Z,11.80
2019-05-09T03:28:03.552Z,11.70
2019-05-09T03:30:34.072Z,11.70
2019-05-09T03:33:01.290Z,11.70
2019-05-09T03:35:28.267Z,11.60
2019-05-09T03:38:08.357Z,11.70
2019-05-09T03:40:37.732Z,11.70
2019-05-09T03:43:07.943Z,11.70
2019-05-09T03:45:49.128Z,11.70
2019-05-09T03:48:22.880Z,11.70
2019-05-09T03:50:50.380Z,11.70
2019-05-09T03:53:18.473Z,11.70
2019-05-09T03:55:47.475Z,11.70
2019-05-09T03:58:18.543Z,11.70
2019-05-09T04:00:47.947Z,11.70
2019-05-09T04:03:19.828Z,11.70
2019-05-09T04:05:58.425Z,11.70
2019-05-09T04:08:18.334Z,11.70
2019-05-09T04:10:50.109Z,11.70
2019-05-09T04:13:18.013Z,11.70
2019-05-09T04:15:47.628Z,11.70
2019-05-09T04:18:14.403Z,11.80
2019-05-09T04:20:42.384Z,11.80
2019-05-09T04:23:09.240Z,11.70
2019-05-09T04:25:40.428Z,11.70
2019-05-09T04:28:07.707Z,11.70
2019-05-09T04:30:34.636Z,11.70
2019-05-09T04:33:02.526Z,11.70
2019-05-09T04:35:30.491Z,11.80
2019-05-09T04:37:59.043Z,11.80
2019-05-09T04:40:31.747Z,11.70
2019-05-09T04:43:08.986Z,11.70
2019-05-09T04:45:33.173Z,11.80
2019-05-09T04:48:02.595Z,11.80
2019-05-09T04:50:30.851Z,11.70
2019-05-09T04:52:58.327Z,11.70
2019-05-09T04:55:27.419Z,11.80
2019-05-09T04:57:57.225Z,11.80
2019-05-09T05:00:32.475Z,11.90
2019-05-09T05:03:01.167Z,11.80
2019-05-09T05:05:28.457Z,11.80
2019-05-09T05:07:57.371Z,11.90
2019-05-09T05:10:24.555Z,11.90
2019-05-09T05:12:51.704Z,11.90
2019-05-09T05:15:20.531Z,11.80
2019-05-09T05:17:48.162Z,11.90
2019-05-09T05:20:20.739Z,11.90
2019-05-09T05:22:54.438Z,12.10
2019-05-09T05:25:21.431Z,11.80
2019-05-09T05:27:48.889Z,11.80
2019-05-09T05:30:18.017Z,11.80
2019-05-09T05:32:58.905Z,11.80
2019-05-09T05:35:32.630Z,11.80
2019-05-09T05:38:00.158Z,11.80
2019-05-09T05:40:32.734Z,11.80
2019-05-09T05:42:58.529Z,11.80
2019-05-09T05:45:28.780Z,11.80
2019-05-09T05:48:01.484Z,11.90
2019-05-09T05:50:28.610Z,11.90
2019-05-09T05:52:57.815Z,11.90
2019-05-09T05:55:27.534Z,11.90
2019-05-09T05:57:55.071Z,11.90
2019-05-09T06:00:24.876Z,11.90
2019-05-09T06:02:51.962Z,11.90
2019-05-09T06:05:20.989Z,11.90
2019-05-09T06:07:48.533Z,12.00
2019-05-09T06:10:18.414Z,12.00
2019-05-09T06:12:44.712Z,12.00
2019-05-09T06:15:12.293Z,12.00
2019-05-09T06:17:39.992Z,12.00
2019-05-09T06:20:08.964Z,12.00
2019-05-09T06:22:38.216Z,12.00
2019-05-09T06:25:09.611Z,12.10
2019-05-09T06:27:37.624Z,12.10
2019-05-09T06:30:08.456Z,12.10
2019-05-09T06:32:35.093Z,12.00
2019-05-09T06:35:03.623Z,12.00
2019-05-09T06:37:30.689Z,12.10
2019-05-09T06:39:58.375Z,12.10
2019-05-09T06:42:28.429Z,12.10
2019-05-09T06:45:15.304Z,12.20
2019-05-09T06:47:44.583Z,12.20
2019-05-09T06:50:15.104Z,12.20
2019-05-09T06:52:42.113Z,12.20
2019-05-09T06:55:09.945Z,12.20
2019-05-09T06:57:42.120Z,12.30
2019-05-09T07:00:13.108Z,12.20
2019-05-09T07:02:47.728Z,12.30
2019-05-09T07:05:29.228Z,12.30
2019-05-09T07:08:19.060Z,12.30
2019-05-09T07:10:48.291Z,12.30
2019-05-09T07:13:15.312Z,12.20
2019-05-09T07:15:43.181Z,12.20
2019-05-09T07:18:11.686Z,12.20
2019-05-09T07:20:38.788Z,12.20
2019-05-09T07:23:09.181Z,12.20
2019-05-09T07:25:47.961Z,12.20
2019-05-09T07:28:15.143Z,12.20
2019-05-09T07:30:48.439Z,12.10
2019-05-09T07:33:34.522Z,12.10
2019-05-09T07:36:02.519Z,12.10
2019-05-09T07:38:31.343Z,12.10
2019-05-09T07:40:59.524Z,12.00
2019-05-09T07:43:28.195Z,12.10
2019-05-09T07:46:04.164Z,12.00
2019-05-09T07:48:31.353Z,12.20
2019-05-09T07:50:59.815Z,12.20
2019-05-09T07:53:28.846Z,12.10
2019-05-09T07:55:58.066Z,12.10
2019-05-09T07:58:25.719Z,12.20
2019-05-09T08:00:52.867Z,12.20
2019-05-09T08:03:20.212Z,12.20
2019-05-09T08:05:47.717Z,12.30
2019-05-09T08:08:18.357Z,12.30
2019-05-09T08:10:44.791Z,12.20
2019-05-09T08:13:12.644Z,12.30
2019-05-09T08:15:40.441Z,12.40
2019-05-09T08:18:08.435Z,12.50
2019-05-09T08:20:40.469Z,12.50
2019-05-09T08:23:08.700Z,12.50
2019-05-09T08:25:38.258Z,12.40
2019-05-09T08:28:06.056Z,12.50
2019-05-09T08:30:36.228Z,12.50
2019-05-09T08:33:04.144Z,12.60
2019-05-09T08:35:31.133Z,12.70
2019-05-09T08:37:58.633Z,12.80
2019-05-09T08:40:28.440Z,12.70
2019-05-09T08:42:54.958Z,12.70
2019-05-09T08:45:27.818Z,12.70
2019-05-09T08:47:52.376Z,12.80
2019-05-09T08:50:28.547Z,12.80
2019-05-09T08:52:57.650Z,12.80
2019-05-09T08:55:27.765Z,12.70
2019-05-09T08:57:55.325Z,12.70
2019-05-09T09:00:24.600Z,12.70
2019-05-09T09:02:51.520Z,12.70
2019-05-09T09:05:19.162Z,12.70
2019-05-09T09:07:49.175Z,12.70
2019-05-09T09:10:18.693Z,12.70
2019-05-09T09:12:47.753Z,12.60
2019-05-09T09:15:15.187Z,12.60
2019-05-09T09:17:43.364Z,12.60
2019-05-09T09:20:10.615Z,12.60
2019-05-09T09:22:38.223Z,12.60
2019-05-09T09:25:07.837Z,12.60
2019-05-09T09:27:37.878Z,12.50
2019-05-09T09:30:17.668Z,12.50
2019-05-09T09:32:34.631Z,12.50
2019-05-09T09:35:02.247Z,12.50
2019-05-09T09:37:45.055Z,12.50
2019-05-09T09:40:00.310Z,12.50
2019-05-09T09:42:28.366Z,12.50
2019-05-09T09:44:58.537Z,12.40
2019-05-09T09:47:28.385Z,12.40
2019-05-09T09:49:59.502Z,12.40
2019-05-09T09:52:29.083Z,12.40
2019-05-09T09:54:58.067Z,12.50
2019-05-09T09:57:24.568Z,12.50
2019-05-09T10:00:12.527Z,12.50
2019-05-09T10:02:40.093Z,12.50
2019-05-09T10:05:08.454Z,12.50
2019-05-09T10:07:38.379Z,12.50
2019-05-09T10:10:07.848Z,12.50
2019-05-09T10:12:43.540Z,12.60
2019-05-09T10:15:14.690Z,12.60
2019-05-09T10:18:07.497Z,12.60
2019-05-09T10:20:39.660Z,12.60
2019-05-09T10:23:15.124Z,12.60
2019-05-09T10:25:38.291Z,12.50
2019-05-09T10:28:05.636Z,12.60
2019-05-09T10:30:34.216Z,12.60
2019-05-09T10:33:02.292Z,12.60
2019-05-09T10:35:30.673Z,12.60
2019-05-09T10:37:58.895Z,12.60
2019-05-09T10:40:28.107Z,12.60
2019-05-09T10:43:03.342Z,12.60
2019-05-09T10:46:09.263Z,12.70
2019-05-09T10:48:38.609Z,12.70
2019-05-09T10:51:09.934Z,12.70
2019-05-09T10:53:37.046Z,12.70
2019-05-09T10:56:04.709Z,12.60
2019-05-09T10:58:31.759Z,12.60
2019-05-09T11:00:59.324Z,12.70
2019-05-09T11:03:27.578Z,12.70
2019-05-09T11:05:55.292Z,12.80
2019-05-09T11:08:23.770Z,12.80
2019-05-09T11:10:50.842Z,12.80
2019-05-09T11:13:19.186Z,12.80
2019-05-09T11:15:47.973Z,12.70
2019-05-09T11:18:15.483Z,12.80
2019-05-09T11:20:43.010Z,12.70
2019-05-09T11:23:10.714Z,12.80
2019-05-09T11:25:38.647Z,12.70
2019-05-09T11:28:11.455Z,12.80
2019-05-09T11:30:38.731Z,12.80
2019-05-09T11:33:07.809Z,12.80
2019-05-09T11:35:35.750Z,12.70
2019-05-09T11:38:08.137Z,12.70
2019-05-09T11:40:34.734Z,12.70
2019-05-09T11:43:02.253Z,12.70
2019-05-09T11:45:31.570Z,12.80
2019-05-09T11:47:58.590Z,12.70
2019-05-09T11:50:25.585Z,12.80
2019-05-09T11:52:52.767Z,12.80
2019-05-09T11:55:29.665Z,12.80
2019-05-09T11:57:49.177Z,12.90
2019-05-09T12:00:17.966Z,12.90
2019-05-09T12:02:46.399Z,13.00
2019-05-09T12:05:13.543Z,12.90
2019-05-09T12:07:42.434Z,12.90
2019-05-09T12:10:10.150Z,12.90
2019-05-09T12:12:39.037Z,12.90
2019-05-09T12:15:09.168Z,12.90
2019-05-09T12:17:51.010Z,12.90
2019-05-09T12:20:10.552Z,12.90
2019-05-09T12:22:36.541Z,12.80
2019-05-09T12:25:03.909Z,12.80
2019-05-09T12:27:31.330Z,12.80
2019-05-09T12:29:58.716Z,12.70
2019-05-09T12:32:28.461Z,12.80
2019-05-09T12:34:57.759Z,12.80
2019-05-09T12:37:24.651Z,12.80
2019-05-09T12:39:52.779Z,12.80
2019-05-09T12:42:20.310Z,12.90
2019-05-09T12:44:49.626Z,12.80
2019-05-09T12:47:18.949Z,12.80
2019-05-09T12:49:48.766Z,12.80
2019-05-09T12:52:18.577Z,12.80
2019-05-09T12:54:48.161Z,12.80
2019-05-09T12:57:15.586Z,12.80
2019-05-09T12:59:48.952Z,12.80
2019-05-09T13:02:13.502Z,12.80
2019-05-09T13:04:40.543Z,12.80
2019-05-09T13:07:08.600Z,12.80
2019-05-09T13:09:36.384Z,12.80
2019-05-09T13:12:03.641Z,12.80
2019-05-09T13:14:31.223Z,12.80
2019-05-09T13:17:04.992Z,12.70
2019-05-09T13:19:38.389Z,12.80
2019-05-09T13:22:08.079Z,12.70
2019-05-09T13:24:37.725Z,12.70
2019-05-09T13:27:04.672Z,12.70
2019-05-09T13:29:32.211Z,12.80
2019-05-09T13:32:00.635Z,12.80
2019-05-09T13:34:28.388Z,12.80
2019-05-09T13:36:59.022Z,12.80
2019-05-09T13:39:27.805Z,12.80
2019-05-09T13:41:54.923Z,12.80
2019-05-09T13:44:22.544Z,12.80
2019-05-09T13:46:49.992Z,12.80
2019-05-09T13:49:19.392Z,12.80
2019-05-09T13:51:57.555Z,12.70
2019-05-09T13:54:18.519Z,12.70
2019-05-09T13:56:56.789Z,12.80
2019-05-09T13:59:19.318Z,12.80
2019-05-09T14:01:47.998Z,12.80
2019-05-09T14:04:15.863Z,12.80
2019-05-09T14:06:43.490Z,12.80
2019-05-09T14:09:12.403Z,12.80
2019-05-09T14:11:40.023Z,12.80
2019-05-09T14:14:07.648Z,12.80
2019-05-09T14:16:35.562Z,12.80
2019-05-09T14:19:26.013Z,12.80
2019-05-09T14:21:33.716Z,12.80
2019-05-09T14:24:11.492Z,12.80
2019-05-09T14:26:30.518Z,12.80
2019-05-09T14:28:58.391Z,12.90
2019-05-09T14:31:31.831Z,12.80
2019-05-09T14:33:56.083Z,12.80
2019-05-09T14:36:23.222Z,12.80
2019-05-09T14:38:50.770Z,12.80
2019-05-09T14:41:19.722Z,12.80
2019-05-09T14:43:48.263Z,12.90
2019-05-09T14:46:18.026Z,12.90
2019-05-09T14:48:45.043Z,12.90
2019-05-09T14:51:13.401Z,12.80
2019-05-09T14:53:40.832Z,12.80
2019-05-09T14:56:08.789Z,12.80
2019-05-09T14:58:38.829Z,12.90
2019-05-09T15:01:08.671Z,12.80
2019-05-09T15:03:38.948Z,12.80
2019-05-09T15:06:07.542Z,12.80
2019-05-09T15:08:38.004Z,12.90
2019-05-09T15:11:05.554Z,12.90
2019-05-09T15:13:32.585Z,12.90
2019-05-09T15:16:00.554Z,12.90
2019-05-09T15:18:29.538Z,13.00
2019-05-09T15:20:58.157Z,13.00
2019-05-09T15:23:25.348Z,13.00
2019-05-09T15:25:52.820Z,13.00
2019-05-09T15:28:20.115Z,13.00
2019-05-09T15:30:48.914Z,13.00
2019-05-09T15:33:18.250Z,13.00
2019-05-09T15:35:45.299Z,13.00
2019-05-09T15:38:12.556Z,13.10
2019-05-09T15:40:39.819Z,13.10
2019-05-09T15:43:08.371Z,13.10
2019-05-09T15:45:44.518Z,13.10
2019-05-09T15:48:12.386Z,13.10
2019-05-09T15:50:39.462Z,13.10
2019-05-09T15:53:08.568Z,13.10
2019-05-09T15:55:35.869Z,13.10
2019-05-09T15:58:03.370Z,13.10
2019-05-09T16:00:30.854Z,13.10
2019-05-09T16:02:59.161Z,13.10
2019-05-09T16:05:27.494Z,13.20
2019-05-09T16:07:55.613Z,13.20
2019-05-09T16:10:23.126Z,13.30
2019-05-09T16:12:50.794Z,13.30
2019-05-09T16:15:18.691Z,13.30
2019-05-09T16:17:48.353Z,13.40
2019-05-09T16:20:22.969Z,13.40
2019-05-09T16:22:44.844Z,13.40
2019-05-09T16:25:12.570Z,13.40
2019-05-09T16:27:41.368Z,13.40
2019-05-09T16:30:10.205Z,13.30
2019-05-09T16:32:37.873Z,13.30
2019-05-09T16:35:07.928Z,13.30
2019-05-09T16:37:52.763Z,13.30
2019-05-09T16:40:08.342Z,13.40
2019-05-09T16:42:35.382Z,13.40
2019-05-09T16:45:02.838Z,13.30
2019-05-09T16:47:30.354Z,13.30
2019-05-09T16:49:58.061Z,13.30
2019-05-09T16:52:26.714Z,13.20
2019-05-09T16:55:04.439Z,13.20
2019-05-09T16:57:32.287Z,13.20
2019-05-09T17:00:00.174Z,13.20
2019-05-09T17:02:28.773Z,13.10
2019-05-09T17:04:57.674Z,13.10
2019-05-09T17:07:27.813Z,13.10
2019-05-09T17:09:57.756Z,13.00
2019-05-09T17:12:24.964Z,13.10
2019-05-09T17:14:52.866Z,13.10
2019-05-09T17:17:23.068Z,13.20
2019-05-09T17:19:52.025Z,13.20
2019-05-09T17:22:39.889Z,13.20
2019-05-09T17:25:10.730Z,13.20
2019-05-09T17:27:38.685Z,13.30
2019-05-09T17:30:08.504Z,13.40
2019-05-09T17:32:37.999Z,13.40
2019-05-09T17:35:05.970Z,13.30
2019-05-09T17:37:33.828Z,13.30
2019-05-09T17:40:00.995Z,13.30
2019-05-09T17:42:29.124Z,13.20
2019-05-09T17:44:57.937Z,13.20
2019-05-09T17:47:28.396Z,13.20
2019-05-09T17:49:57.415Z,13.20
2019-05-09T17:52:25.051Z,13.20
2019-05-09T17:54:53.570Z,13.20
2019-05-09T17:57:21.756Z,13.10
2019-05-09T17:59:50.147Z,13.10
2019-05-09T18:02:18.131Z,13.20
2019-05-09T18:04:47.967Z,13.10
2019-05-09T18:07:18.044Z,13.10
2019-05-09T18:09:48.335Z,13.10
2019-05-09T18:12:15.763Z,13.10
2019-05-09T18:14:43.466Z,13.10
2019-05-09T18:17:11.573Z,13.00
2019-05-09T18:19:39.046Z,13.10
2019-05-09T18:22:08.203Z,13.10
2019-05-09T18:24:37.668Z,13.00
2019-05-09T18:27:07.702Z,13.00
2019-05-09T18:29:34.934Z,13.00
2019-05-09T18:32:28.250Z,12.90
2019-05-09T18:35:11.567Z,12.90
2019-05-09T18:37:38.618Z,12.90
2019-05-09T18:40:08.334Z,12.90
2019-05-09T18:42:36.583Z,13.00
2019-05-09T18:45:07.791Z,12.90
2019-05-09T18:47:34.627Z,12.90
2019-05-09T18:50:02.089Z,12.90
2019-05-09T18:52:30.628Z,12.90
2019-05-09T18:54:58.185Z,12.90
2019-05-09T18:57:25.511Z,12.90
2019-05-09T18:59:53.046Z,12.90
2019-05-09T19:02:22.066Z,12.70
2019-05-09T19:04:50.021Z,12.80
2019-05-09T19:07:22.381Z,12.80
2019-05-09T19:09:48.151Z,12.80
2019-05-09T19:12:16.045Z,12.80
2019-05-09T19:14:44.150Z,12.80
2019-05-09T19:17:40.846Z,12.80
2019-05-09T19:20:28.485Z,12.80
2019-05-09T19:22:57.313Z,12.70
2019-05-09T19:25:24.998Z,12.70
2019-05-09T19:27:53.389Z,12.70
2019-05-09T19:30:21.698Z,12.60
2019-05-09T19:32:48.890Z,12.50
2019-05-09T19:35:16.892Z,12.60
2019-05-09T19:37:46.571Z,12.50
2019-05-09T19:40:19.964Z,12.50
2019-05-09T19:42:44.751Z,12.60
2019-05-09T19:45:12.534Z,12.50
2019-05-09T19:47:39.738Z,12.50
2019-05-09T19:50:07.209Z,12.50
2019-05-09T19:52:38.525Z,12.50
2019-05-09T19:55:03.636Z,12.50
2019-05-09T19:57:32.634Z,12.50
2019-05-09T20:00:00.271Z,12.50
2019-05-09T20:02:29.883Z,12.40
2019-05-09T20:04:57.073Z,12.40
2019-05-09T20:07:24.271Z,12.40
2019-05-09T20:09:58.486Z,12.40
2019-05-09T20:12:43.975Z,12.40
2019-05-09T20:15:12.947Z,12.50
2019-05-09T20:17:41.421Z,12.40
2019-05-09T20:20:08.730Z,12.40
2019-05-09T20:22:36.139Z,12.40
2019-05-09T20:25:04.595Z,12.40
2019-05-09T20:27:31.788Z,12.40
2019-05-09T20:30:00.095Z,12.40
2019-05-09T20:32:28.786Z,12.40
2019-05-09T20:34:56.123Z,12.40
2019-05-09T20:37:23.464Z,12.40
2019-05-09T20:39:51.662Z,12.50
2019-05-09T20:42:20.606Z,12.40
2019-05-09T20:44:49.530Z,12.40
2019-05-09T20:47:17.185Z,12.40
2019-05-09T20:49:44.334Z,12.40
2019-05-09T20:52:13.534Z,12.40
2019-05-09T20:54:40.599Z,12.40
2019-05-09T20:57:08.318Z,12.50
2019-05-09T20:59:35.571Z,12.40
2019-05-09T21:02:03.657Z,12.50
2019-05-09T21:04:30.987Z,12.50
2019-05-09T21:06:58.547Z,12.50
2019-05-09T21:09:26.444Z,12.50
2019-05-09T21:11:54.305Z,12.50
2019-05-09T21:14:21.636Z,12.50
2019-05-09T21:16:49.149Z,12.50
2019-05-09T21:19:17.062Z,12.50
2019-05-09T21:21:45.099Z,12.50
2019-05-09T21:24:12.792Z,12.50
2019-05-09T21:26:40.190Z,12.60
2019-05-09T21:29:07.350Z,12.60
2019-05-09T21:31:34.873Z,12.60
2019-05-09T21:34:01.918Z,12.40
2019-05-09T21:36:29.090Z,12.60
2019-05-09T21:38:56.018Z,12.50
2019-05-09T21:41:23.070Z,12.60
2019-05-09T21:43:50.110Z,12.60
2019-05-09T21:46:18.763Z,12.60
2019-05-09T21:48:45.895Z,12.60
2019-05-09T21:51:13.727Z,12.60
2019-05-09T21:53:41.522Z,12.60
2019-05-09T21:56:08.894Z,12.50
2019-05-09T21:58:35.962Z,12.60
2019-05-09T22:01:04.594Z,12.60
2019-05-09T22:03:32.246Z,12.60
2019-05-09T22:05:59.206Z,12.60
2019-05-09T22:08:26.381Z,12.60
2019-05-09T22:10:53.830Z,12.50
2019-05-09T22:13:21.142Z,12.50
2019-05-09T22:15:48.286Z,12.60
2019-05-09T22:18:15.867Z,12.50
2019-05-09T22:20:42.900Z,12.50
2019-05-09T22:23:10.388Z,12.40
2019-05-09T22:25:37.434Z,12.40
2019-05-09T22:28:05.003Z,12.50
2019-05-09T22:30:32.192Z,12.40
2019-05-09T22:32:59.226Z,12.50
2019-05-09T22:35:27.259Z,12.40
2019-05-09T22:37:55.122Z,12.40
2019-05-09T22:40:22.267Z,12.50
2019-05-09T22:42:49.879Z,12.40
2019-05-09T22:45:17.317Z,12.50
2019-05-09T22:47:44.898Z,12.40
2019-05-09T22:50:13.557Z,12.50
2019-05-09T22:52:41.285Z,12.50
2019-05-09T22:55:08.794Z,12.40
2019-05-09T22:57:36.194Z,12.40
2019-05-09T23:00:04.145Z,12.40
2019-05-09T23:02:31.682Z,12.50
2019-05-09T23:04:58.863Z,12.40
2019-05-09T23:07:26.030Z,12.40
2019-05-09T23:09:53.798Z,12.50
2019-05-09T23:12:20.979Z,12.40
2019-05-09T23:14:48.138Z,12.40
2019-05-09T23:17:15.171Z,12.40
2019-05-09T23:19:42.491Z,12.40
2019-05-09T23:22:10.774Z,12.40
2019-05-09T23:24:38.869Z,12.40
2019-05-09T23:27:07.730Z,12.30
2019-05-09T23:29:35.298Z,12.30
2019-05-09T23:32:14.622Z,12.30
2019-05-09T23:34:42.494Z,12.30
2019-05-09T23:37:10.874Z,12.30
2019-05-09T23:39:41.306Z,12.30
2019-05-09T23:42:08.749Z,12.30
2019-05-09T23:44:35.790Z,12.30
2019-05-09T23:47:03.256Z,12.30
2019-05-09T23:49:30.836Z,12.30
2019-05-09T23:51:58.483Z,12.20
2019-05-09T23:54:46.753Z,12.30
2019-05-09T23:57:31.913Z,12.20
